This is the latest recevied weather packets stored in our database for station/object WK7G. If no packets are shown the sender has not sent any weather packets the latest 10 day(s).
| Time | Temp. | Humidity | Pressure | Rain* | Wind** | Luminosity | Snow |
|---|---|---|---|---|---|---|---|
| 1777991341 | 6.67° C | 60% | 1005.2 hPa | 0 mm | - | 242 W/m² | - |
| 1777991039 | 6.67° C | 61% | 1005.2 hPa | 0 mm | - | 270 W/m² | - |
| 1777990735 | 6.11° C | 61% | 1005.4 hPa | 0 mm | - | 292 W/m² | - |
| 1777990433 | 6.11° C | 61% | 1005.5 hPa | 0 mm | - | 258 W/m² | - |
| 1777990129 | 6.11° C | 61% | 1005.2 hPa | 0 mm | - | 232 W/m² | - |
| 1777989826 | 5.56° C | 61% | 1005.4 hPa | 0 mm | - | 209 W/m² | - |
| 1777988613 | 5.56° C | 62% | 1005.2 hPa | 0 mm | - | 116 W/m² | - |
| 1777988309 | 5.56° C | 63% | 1005.2 hPa | 0 mm | - | 127 W/m² | - |
| 1777988006 | 5.56° C | 65% | 1005.1 hPa | 0 mm | - | 117 W/m² | - |
| 1777987701 | 5° C | 65% | 1005.4 hPa | 0 mm | - | 81 W/m² | - |
| 1777987399 | 5° C | 66% | 1005.2 hPa | 0 mm | - | 68 W/m² | - |
| 1777987096 | 4.44° C | 68% | 1005.1 hPa | 0 mm | - | 62 W/m² | - |
| 1777986794 | 4.44° C | 70% | 1005 hPa | 0 mm | - | 52 W/m² | - |
| 1777986491 | 3.89° C | 73% | 1004.9 hPa | 0 mm | - | 45 W/m² | - |
| 1777985280 | 1.67° C | 76% | 1004.9 hPa | 0 mm | - | 24 W/m² | - |
| 1777984672 | 1.67° C | 72% | 1004.6 hPa | 0 mm | - | 18 W/m² | - |
| 1777984369 | 2.22° C | 69% | 1004.6 hPa | 0 mm | - | 14 W/m² | - |
| 1777984065 | 2.78° C | 69% | 1005 hPa | 0 mm | - | 10 W/m² | - |
| 1777983156 | 3.89° C | 63% | 1004.5 hPa | 0 mm | - | 1 W/m² | - |
| 1777981035 | 5.56° C | 61% | 1004.6 hPa | 0 mm | - | 0 W/m² | - |
| 1777980732 | 5.56° C | 61% | 1004.6 hPa | 0 mm | - | 0 W/m² | - |
| 1777980126 | 5.56° C | 66% | 1004.9 hPa | 0 mm | - | 0 W/m² | - |
| 1777979825 | 5.56° C | 68% | 1004.6 hPa | 0 mm | - | 0 W/m² | - |
| 1777979521 | 5.56° C | 68% | 1004.5 hPa | 0 mm | - | 0 W/m² | - |
| 1777979218 | 5.56° C | 72% | 1004.4 hPa | 0 mm | - | 0 W/m² | - |
* Rain latest hour (hover to see other rain measurements)
** Current wind speed in m/s (hover to see current wind gust speed)